sensor_id;sensor_type;location;lat;lon;timestamp;P1;durP1;ratioP1;P2;durP2;ratioP2
2111;SDS011;1062;52.538;13.400;2022-07-23T00:01:33;4.67;;;4.07;;
2111;SDS011;1062;52.538;13.400;2022-07-23T00:03:59;6.67;;;4.17;;
2111;SDS011;1062;52.538;13.400;2022-07-23T00:06:24;4.63;;;4.23;;
2111;SDS011;1062;52.538;13.400;2022-07-23T00:08:51;5.30;;;4.43;;
2111;SDS011;1062;52.538;13.400;2022-07-23T00:11:17;7.03;;;5.03;;
2111;SDS011;1062;52.538;13.400;2022-07-23T00:13:43;4.70;;;3.80;;
2111;SDS011;1062;52.538;13.400;2022-07-23T00:16:09;10.00;;;4.80;;
2111;SDS011;1062;52.538;13.400;2022-07-23T00:18:34;5.93;;;4.60;;
2111;SDS011;1062;52.538;13.400;2022-07-23T00:21:00;6.80;;;4.27;;
2111;SDS011;1062;52.538;13.400;2022-07-23T00:23:26;4.80;;;4.33;;
2111;SDS011;1062;52.538;13.400;2022-07-23T00:25:53;4.73;;;4.23;;
2111;SDS011;1062;52.538;13.400;2022-07-23T00:28:18;13.30;;;4.47;;
2111;SDS011;1062;52.538;13.400;2022-07-23T00:30:44;5.07;;;4.20;;
2111;SDS011;1062;52.538;13.400;2022-07-23T00:33:10;5.37;;;4.83;;
2111;SDS011;1062;52.538;13.400;2022-07-23T00:35:36;4.73;;;4.23;;
2111;SDS011;1062;52.538;13.400;2022-07-23T00:38:05;9.37;;;5.00;;
2111;SDS011;1062;52.538;13.400;2022-07-23T00:40:32;6.17;;;4.23;;
2111;SDS011;1062;52.538;13.400;2022-07-23T00:42:58;4.73;;;4.37;;
2111;SDS011;1062;52.538;13.400;2022-07-23T00:45:24;5.93;;;4.47;;
2111;SDS011;1062;52.538;13.400;2022-07-23T00:47:50;6.40;;;4.50;;
2111;SDS011;1062;52.538;13.400;2022-07-23T00:50:16;5.40;;;4.87;;
2111;SDS011;1062;52.538;13.400;2022-07-23T00:52:42;4.63;;;4.23;;
2111;SDS011;1062;52.538;13.400;2022-07-23T00:55:08;5.13;;;3.63;;
2111;SDS011;1062;52.538;13.400;2022-07-23T00:57:34;5.37;;;4.13;;
2111;SDS011;1062;52.538;13.400;2022-07-23T01:00:01;4.20;;;3.70;;
2111;SDS011;1062;52.538;13.400;2022-07-23T01:02:28;4.13;;;3.73;;
2111;SDS011;1062;52.538;13.400;2022-07-23T01:04:54;6.30;;;4.40;;
2111;SDS011;1062;52.538;13.400;2022-07-23T01:07:19;4.67;;;4.17;;
2111;SDS011;1062;52.538;13.400;2022-07-23T01:09:46;4.10;;;3.70;;
2111;SDS011;1062;52.538;13.400;2022-07-23T01:12:13;5.23;;;4.73;;
2111;SDS011;1062;52.538;13.400;2022-07-23T01:14:38;4.60;;;4.17;;
2111;SDS011;1062;52.538;13.400;2022-07-23T01:17:04;5.23;;;4.47;;
2111;SDS011;1062;52.538;13.400;2022-07-23T01:19:30;5.17;;;4.60;;
2111;SDS011;1062;52.538;13.400;2022-07-23T01:21:56;5.70;;;4.70;;
2111;SDS011;1062;52.538;13.400;2022-07-23T01:24:24;6.57;;;5.03;;
2111;SDS011;1062;52.538;13.400;2022-07-23T01:26:49;4.60;;;4.20;;
2111;SDS011;1062;52.538;13.400;2022-07-23T01:29:15;5.03;;;4.57;;
2111;SDS011;1062;52.538;13.400;2022-07-23T01:31:41;4.97;;;4.47;;
2111;SDS011;1062;52.538;13.400;2022-07-23T01:34:07;4.47;;;3.87;;
2111;SDS011;1062;52.538;13.400;2022-07-23T01:36:34;4.77;;;4.23;;
2111;SDS011;1062;52.538;13.400;2022-07-23T01:39:00;4.53;;;4.13;;
2111;SDS011;1062;52.538;13.400;2022-07-23T01:41:26;6.23;;;4.77;;
2111;SDS011;1062;52.538;13.400;2022-07-23T01:43:52;5.93;;;4.40;;
2111;SDS011;1062;52.538;13.400;2022-07-23T01:46:17;7.03;;;4.67;;
2111;SDS011;1062;52.538;13.400;2022-07-23T01:48:43;6.67;;;4.50;;
2111;SDS011;1062;52.538;13.400;2022-07-23T01:51:08;6.10;;;5.27;;
2111;SDS011;1062;52.538;13.400;2022-07-23T01:53:34;5.60;;;5.10;;
2111;SDS011;1062;52.538;13.400;2022-07-23T01:56:00;5.83;;;3.80;;
2111;SDS011;1062;52.538;13.400;2022-07-23T01:58:26;8.30;;;4.30;;
2111;SDS011;1062;52.538;13.400;2022-07-23T02:00:53;6.70;;;4.50;;
2111;SDS011;1062;52.538;13.400;2022-07-23T02:03:19;7.93;;;5.00;;
2111;SDS011;1062;52.538;13.400;2022-07-23T02:05:45;5.17;;;3.93;;
2111;SDS011;1062;52.538;13.400;2022-07-23T02:08:11;6.67;;;4.50;;
2111;SDS011;1062;52.538;13.400;2022-07-23T02:10:37;5.40;;;4.90;;
2111;SDS011;1062;52.538;13.400;2022-07-23T02:13:02;4.23;;;3.83;;
2111;SDS011;1062;52.538;13.400;2022-07-23T02:15:28;5.73;;;5.20;;
2111;SDS011;1062;52.538;13.400;2022-07-23T02:17:54;5.30;;;4.87;;
2111;SDS011;1062;52.538;13.400;2022-07-23T02:20:19;6.50;;;4.70;;
2111;SDS011;1062;52.538;13.400;2022-07-23T02:22:45;8.90;;;4.53;;
2111;SDS011;1062;52.538;13.400;2022-07-23T02:25:11;5.73;;;5.17;;
2111;SDS011;1062;52.538;13.400;2022-07-23T02:27:36;5.50;;;4.60;;
2111;SDS011;1062;52.538;13.400;2022-07-23T02:30:02;5.43;;;4.57;;
2111;SDS011;1062;52.538;13.400;2022-07-23T02:32:28;6.30;;;4.50;;
2111;SDS011;1062;52.538;13.400;2022-07-23T02:34:54;4.33;;;3.77;;
2111;SDS011;1062;52.538;13.400;2022-07-23T02:37:19;4.97;;;4.50;;
2111;SDS011;1062;52.538;13.400;2022-07-23T02:39:45;6.87;;;5.10;;
2111;SDS011;1062;52.538;13.400;2022-07-23T02:42:13;5.37;;;4.87;;
2111;SDS011;1062;52.538;13.400;2022-07-23T02:44:39;8.13;;;4.27;;
2111;SDS011;1062;52.538;13.400;2022-07-23T02:47:04;8.60;;;4.83;;
2111;SDS011;1062;52.538;13.400;2022-07-23T02:49:30;5.03;;;4.40;;
2111;SDS011;1062;52.538;13.400;2022-07-23T02:51:56;3.87;;;3.57;;
2111;SDS011;1062;52.538;13.400;2022-07-23T02:54:21;6.70;;;4.80;;
2111;SDS011;1062;52.538;13.400;2022-07-23T02:56:47;6.20;;;4.10;;
2111;SDS011;1062;52.538;13.400;2022-07-23T02:59:12;4.60;;;4.10;;
2111;SDS011;1062;52.538;13.400;2022-07-23T03:01:39;5.77;;;4.60;;
2111;SDS011;1062;52.538;13.400;2022-07-23T03:04:05;5.30;;;4.13;;
2111;SDS011;1062;52.538;13.400;2022-07-23T03:06:30;8.27;;;4.57;;
2111;SDS011;1062;52.538;13.400;2022-07-23T03:08:56;7.30;;;4.27;;
2111;SDS011;1062;52.538;13.400;2022-07-23T03:11:21;4.10;;;3.80;;
2111;SDS011;1062;52.538;13.400;2022-07-23T03:13:47;4.10;;;3.57;;
2111;SDS011;1062;52.538;13.400;2022-07-23T03:16:12;4.30;;;3.90;;
2111;SDS011;1062;52.538;13.400;2022-07-23T03:18:38;6.53;;;4.20;;
2111;SDS011;1062;52.538;13.400;2022-07-23T03:21:04;8.73;;;6.80;;
2111;SDS011;1062;52.538;13.400;2022-07-23T03:23:29;3.83;;;3.53;;
2111;SDS011;1062;52.538;13.400;2022-07-23T03:25:55;5.30;;;3.67;;
2111;SDS011;1062;52.538;13.400;2022-07-23T03:28:20;6.03;;;5.53;;
2111;SDS011;1062;52.538;13.400;2022-07-23T03:30:46;5.60;;;3.87;;
2111;SDS011;1062;52.538;13.400;2022-07-23T03:33:12;5.83;;;4.20;;
2111;SDS011;1062;52.538;13.400;2022-07-23T03:35:42;5.63;;;3.93;;
2111;SDS011;1062;52.538;13.400;2022-07-23T03:38:08;5.53;;;3.60;;
2111;SDS011;1062;52.538;13.400;2022-07-23T03:40:34;4.50;;;3.77;;
2111;SDS011;1062;52.538;13.400;2022-07-23T03:42:59;5.23;;;4.37;;
2111;SDS011;1062;52.538;13.400;2022-07-23T03:45:25;4.37;;;3.77;;
2111;SDS011;1062;52.538;13.400;2022-07-23T03:47:51;5.10;;;3.43;;
2111;SDS011;1062;52.538;13.400;2022-07-23T03:50:17;4.43;;;3.50;;
2111;SDS011;1062;52.538;13.400;2022-07-23T03:52:42;3.83;;;3.53;;
2111;SDS011;1062;52.538;13.400;2022-07-23T03:55:08;5.70;;;3.53;;
2111;SDS011;1062;52.538;13.400;2022-07-23T03:57:34;5.97;;;3.30;;
2111;SDS011;1062;52.538;13.400;2022-07-23T03:59:59;3.63;;;3.33;;
2111;SDS011;1062;52.538;13.400;2022-07-23T04:02:25;5.07;;;3.60;;
2111;SDS011;1062;52.538;13.400;2022-07-23T04:04:51;2.93;;;2.30;;
2111;SDS011;1062;52.538;13.400;2022-07-23T04:07:16;3.00;;;2.70;;
2111;SDS011;1062;52.538;13.400;2022-07-23T04:09:42;3.57;;;2.87;;
2111;SDS011;1062;52.538;13.400;2022-07-23T04:12:08;3.73;;;2.80;;
2111;SDS011;1062;52.538;13.400;2022-07-23T04:14:34;3.60;;;2.63;;
2111;SDS011;1062;52.538;13.400;2022-07-23T04:17:00;3.40;;;3.00;;
2111;SDS011;1062;52.538;13.400;2022-07-23T04:19:26;4.03;;;2.50;;
2111;SDS011;1062;52.538;13.400;2022-07-23T04:21:52;3.07;;;2.57;;
2111;SDS011;1062;52.538;13.400;2022-07-23T04:24:17;4.30;;;2.60;;
2111;SDS011;1062;52.538;13.400;2022-07-23T04:26:43;12.97;;;4.03;;
2111;SDS011;1062;52.538;13.400;2022-07-23T04:29:09;2.33;;;2.10;;
2111;SDS011;1062;52.538;13.400;2022-07-23T04:31:35;3.07;;;1.80;;
2111;SDS011;1062;52.538;13.400;2022-07-23T04:34:00;1.80;;;1.60;;
2111;SDS011;1062;52.538;13.400;2022-07-23T04:36:26;6.60;;;2.50;;
2111;SDS011;1062;52.538;13.400;2022-07-23T04:38:52;2.83;;;2.63;;
2111;SDS011;1062;52.538;13.400;2022-07-23T04:41:17;3.43;;;1.93;;
2111;SDS011;1062;52.538;13.400;2022-07-23T04:43:43;3.50;;;2.60;;
2111;SDS011;1062;52.538;13.400;2022-07-23T04:46:08;2.40;;;2.20;;
2111;SDS011;1062;52.538;13.400;2022-07-23T04:48:35;3.80;;;2.40;;
2111;SDS011;1062;52.538;13.400;2022-07-23T04:51:01;3.10;;;2.50;;
2111;SDS011;1062;52.538;13.400;2022-07-23T04:53:27;3.40;;;2.30;;
2111;SDS011;1062;52.538;13.400;2022-07-23T04:55:53;3.97;;;2.37;;
2111;SDS011;1062;52.538;13.400;2022-07-23T04:58:18;3.30;;;2.93;;
2111;SDS011;1062;52.538;13.400;2022-07-23T05:00:44;2.60;;;2.40;;
2111;SDS011;1062;52.538;13.400;2022-07-23T05:03:09;6.30;;;3.03;;
2111;SDS011;1062;52.538;13.400;2022-07-23T05:05:35;2.40;;;2.13;;
2111;SDS011;1062;52.538;13.400;2022-07-23T05:08:01;5.40;;;2.70;;
2111;SDS011;1062;52.538;13.400;2022-07-23T05:10:26;2.50;;;2.30;;
2111;SDS011;1062;52.538;13.400;2022-07-23T05:12:52;6.70;;;2.97;;
2111;SDS011;1062;52.538;13.400;2022-07-23T05:15:17;3.87;;;3.13;;
2111;SDS011;1062;52.538;13.400;2022-07-23T05:17:43;3.63;;;2.97;;
2111;SDS011;1062;52.538;13.400;2022-07-23T05:20:09;8.00;;;2.93;;
2111;SDS011;1062;52.538;13.400;2022-07-23T05:22:34;5.47;;;3.50;;
2111;SDS011;1062;52.538;13.400;2022-07-23T05:25:00;3.60;;;2.53;;
2111;SDS011;1062;52.538;13.400;2022-07-23T05:27:26;2.90;;;2.70;;
2111;SDS011;1062;52.538;13.400;2022-07-23T05:29:51;3.37;;;3.07;;
2111;SDS011;1062;52.538;13.400;2022-07-23T05:32:17;3.63;;;2.20;;
2111;SDS011;1062;52.538;13.400;2022-07-23T05:34:42;3.10;;;2.70;;
2111;SDS011;1062;52.538;13.400;2022-07-23T05:37:08;3.40;;;2.63;;
2111;SDS011;1062;52.538;13.400;2022-07-23T05:39:33;3.73;;;2.77;;
2111;SDS011;1062;52.538;13.400;2022-07-23T05:41:59;7.00;;;2.27;;
2111;SDS011;1062;52.538;13.400;2022-07-23T05:44:24;3.40;;;2.43;;
2111;SDS011;1062;52.538;13.400;2022-07-23T05:46:52;3.60;;;3.10;;
2111;SDS011;1062;52.538;13.400;2022-07-23T05:49:17;4.50;;;2.80;;
2111;SDS011;1062;52.538;13.400;2022-07-23T05:51:43;2.93;;;2.67;;
2111;SDS011;1062;52.538;13.400;2022-07-23T05:54:08;3.87;;;2.60;;
2111;SDS011;1062;52.538;13.400;2022-07-23T05:56:34;4.37;;;2.67;;
2111;SDS011;1062;52.538;13.400;2022-07-23T05:59:00;3.07;;;2.80;;
2111;SDS011;1062;52.538;13.400;2022-07-23T06:01:25;4.43;;;3.00;;
2111;SDS011;1062;52.538;13.400;2022-07-23T06:03:51;3.77;;;3.07;;
2111;SDS011;1062;52.538;13.400;2022-07-23T06:06:17;3.93;;;3.10;;
2111;SDS011;1062;52.538;13.400;2022-07-23T06:08:42;3.03;;;2.70;;
2111;SDS011;1062;52.538;13.400;2022-07-23T06:11:08;3.40;;;2.97;;
2111;SDS011;1062;52.538;13.400;2022-07-23T06:13:34;7.17;;;2.83;;
2111;SDS011;1062;52.538;13.400;2022-07-23T06:15:59;7.07;;;3.03;;
2111;SDS011;1062;52.538;13.400;2022-07-23T06:18:25;3.47;;;2.70;;
2111;SDS011;1062;52.538;13.400;2022-07-23T06:20:50;3.57;;;3.27;;
2111;SDS011;1062;52.538;13.400;2022-07-23T06:23:16;7.93;;;3.57;;
2111;SDS011;1062;52.538;13.400;2022-07-23T06:25:41;5.00;;;2.60;;
2111;SDS011;1062;52.538;13.400;2022-07-23T06:28:07;3.10;;;2.80;;
2111;SDS011;1062;52.538;13.400;2022-07-23T06:30:32;4.00;;;3.60;;
2111;SDS011;1062;52.538;13.400;2022-07-23T06:32:58;3.40;;;3.10;;
2111;SDS011;1062;52.538;13.400;2022-07-23T06:35:24;3.43;;;3.13;;
2111;SDS011;1062;52.538;13.400;2022-07-23T06:37:50;4.80;;;3.43;;
2111;SDS011;1062;52.538;13.400;2022-07-23T06:40:15;7.33;;;3.80;;
2111;SDS011;1062;52.538;13.400;2022-07-23T06:42:41;5.53;;;3.53;;
2111;SDS011;1062;52.538;13.400;2022-07-23T06:45:07;3.50;;;3.20;;
2111;SDS011;1062;52.538;13.400;2022-07-23T06:47:33;5.70;;;3.80;;
2111;SDS011;1062;52.538;13.400;2022-07-23T06:49:58;4.43;;;3.30;;
2111;SDS011;1062;52.538;13.400;2022-07-23T06:52:24;6.10;;;3.30;;
2111;SDS011;1062;52.538;13.400;2022-07-23T06:54:51;6.17;;;3.50;;
2111;SDS011;1062;52.538;13.400;2022-07-23T06:57:16;4.70;;;3.83;;
2111;SDS011;1062;52.538;13.400;2022-07-23T06:59:42;5.53;;;3.17;;
2111;SDS011;1062;52.538;13.400;2022-07-23T07:02:08;5.90;;;3.80;;
2111;SDS011;1062;52.538;13.400;2022-07-23T07:04:33;5.03;;;3.10;;
2111;SDS011;1062;52.538;13.400;2022-07-23T07:06:59;6.10;;;3.90;;
2111;SDS011;1062;52.538;13.400;2022-07-23T07:09:24;6.40;;;3.17;;
2111;SDS011;1062;52.538;13.400;2022-07-23T07:11:50;5.70;;;4.27;;
2111;SDS011;1062;52.538;13.400;2022-07-23T07:14:15;4.73;;;3.43;;
2111;SDS011;1062;52.538;13.400;2022-07-23T07:16:41;7.63;;;4.60;;
2111;SDS011;1062;52.538;13.400;2022-07-23T07:19:07;6.80;;;4.40;;
2111;SDS011;1062;52.538;13.400;2022-07-23T07:21:32;9.50;;;4.27;;
2111;SDS011;1062;52.538;13.400;2022-07-23T07:23:58;5.00;;;4.07;;
2111;SDS011;1062;52.538;13.400;2022-07-23T07:26:24;6.03;;;3.27;;
2111;SDS011;1062;52.538;13.400;2022-07-23T07:28:50;4.47;;;3.77;;
2111;SDS011;1062;52.538;13.400;2022-07-23T07:31:16;4.30;;;3.23;;
2111;SDS011;1062;52.538;13.400;2022-07-23T07:33:42;10.03;;;4.03;;
2111;SDS011;1062;52.538;13.400;2022-07-23T07:36:07;4.10;;;3.70;;
2111;SDS011;1062;52.538;13.400;2022-07-23T07:38:33;4.93;;;3.40;;
2111;SDS011;1062;52.538;13.400;2022-07-23T07:40:59;5.30;;;3.40;;
2111;SDS011;1062;52.538;13.400;2022-07-23T07:43:24;3.93;;;2.70;;
2111;SDS011;1062;52.538;13.400;2022-07-23T07:45:50;3.10;;;2.80;;
2111;SDS011;1062;52.538;13.400;2022-07-23T07:48:15;4.70;;;2.70;;
2111;SDS011;1062;52.538;13.400;2022-07-23T07:50:41;4.60;;;3.30;;
2111;SDS011;1062;52.538;13.400;2022-07-23T07:53:06;4.57;;;3.27;;
2111;SDS011;1062;52.538;13.400;2022-07-23T07:55:33;4.03;;;2.93;;
2111;SDS011;1062;52.538;13.400;2022-07-23T07:57:59;3.40;;;3.10;;
2111;SDS011;1062;52.538;13.400;2022-07-23T08:00:25;4.67;;;3.83;;
2111;SDS011;1062;52.538;13.400;2022-07-23T08:02:51;5.77;;;2.93;;
2111;SDS011;1062;52.538;13.400;2022-07-23T08:05:19;3.30;;;3.03;;
2111;SDS011;1062;52.538;13.400;2022-07-23T08:07:49;4.50;;;3.23;;
2111;SDS011;1062;52.538;13.400;2022-07-23T08:10:15;3.00;;;2.70;;
2111;SDS011;1062;52.538;13.400;2022-07-23T08:15:11;2.60;;;2.40;;
2111;SDS011;1062;52.538;13.400;2022-07-23T08:17:41;2.73;;;2.30;;
2111;SDS011;1062;52.538;13.400;2022-07-23T08:20:09;5.17;;;2.37;;
2111;SDS011;1062;52.538;13.400;2022-07-23T08:25:10;3.37;;;1.70;;
2111;SDS011;1062;52.538;13.400;2022-07-23T08:27:36;3.20;;;2.07;;
2111;SDS011;1062;52.538;13.400;2022-07-23T08:30:02;1.83;;;1.73;;
2111;SDS011;1062;52.538;13.400;2022-07-23T08:32:28;4.07;;;1.77;;
2111;SDS011;1062;52.538;13.400;2022-07-23T08:34:54;1.27;;;1.03;;
2111;SDS011;1062;52.538;13.400;2022-07-23T08:37:19;3.27;;;1.60;;
2111;SDS011;1062;52.538;13.400;2022-07-23T08:39:45;2.23;;;1.70;;
2111;SDS011;1062;52.538;13.400;2022-07-23T08:42:10;1.73;;;1.63;;
2111;SDS011;1062;52.538;13.400;2022-07-23T08:44:38;2.10;;;1.90;;
2111;SDS011;1062;52.538;13.400;2022-07-23T08:47:09;1.80;;;1.60;;
2111;SDS011;1062;52.538;13.400;2022-07-23T08:49:35;4.60;;;1.70;;
2111;SDS011;1062;52.538;13.400;2022-07-23T08:52:02;2.13;;;1.50;;
2111;SDS011;1062;52.538;13.400;2022-07-23T08:54:29;1.40;;;1.30;;
2111;SDS011;1062;52.538;13.400;2022-07-23T08:56:55;3.07;;;1.20;;
2111;SDS011;1062;52.538;13.400;2022-07-23T08:59:20;2.73;;;1.50;;
2111;SDS011;1062;52.538;13.400;2022-07-23T09:01:46;1.60;;;1.50;;
2111;SDS011;1062;52.538;13.400;2022-07-23T09:04:12;6.30;;;2.30;;
2111;SDS011;1062;52.538;13.400;2022-07-23T09:06:40;2.13;;;1.33;;
2111;SDS011;1062;52.538;13.400;2022-07-23T09:09:19;2.53;;;1.67;;
2111;SDS011;1062;52.538;13.400;2022-07-23T09:11:46;1.60;;;1.50;;
2111;SDS011;1062;52.538;13.400;2022-07-23T09:14:13;1.60;;;1.50;;
2111;SDS011;1062;52.538;13.400;2022-07-23T09:16:39;2.50;;;1.83;;
2111;SDS011;1062;52.538;13.400;2022-07-23T09:19:05;2.80;;;1.50;;
2111;SDS011;1062;52.538;13.400;2022-07-23T09:21:36;1.97;;;1.70;;
2111;SDS011;1062;52.538;13.400;2022-07-23T09:31:33;2.27;;;1.70;;
2111;SDS011;1062;52.538;13.400;2022-07-23T09:34:11;4.50;;;2.10;;
2111;SDS011;1062;52.538;13.400;2022-07-23T09:36:40;2.90;;;2.03;;
2111;SDS011;1062;52.538;13.400;2022-07-23T09:39:07;2.37;;;1.80;;
2111;SDS011;1062;52.538;13.400;2022-07-23T09:41:35;2.83;;;2.20;;
2111;SDS011;1062;52.538;13.400;2022-07-23T09:44:12;2.43;;;2.23;;
2111;SDS011;1062;52.538;13.400;2022-07-23T09:46:48;3.13;;;2.10;;
2111;SDS011;1062;52.538;13.400;2022-07-23T09:49:18;2.40;;;2.20;;
2111;SDS011;1062;52.538;13.400;2022-07-23T09:51:57;2.20;;;2.10;;
2111;SDS011;1062;52.538;13.400;2022-07-23T09:54:25;1.87;;;1.77;;
2111;SDS011;1062;52.538;13.400;2022-07-23T09:57:01;3.40;;;2.20;;
2111;SDS011;1062;52.538;13.400;2022-07-23T09:59:38;4.60;;;3.97;;
2111;SDS011;1062;52.538;13.400;2022-07-23T10:02:04;2.67;;;2.00;;
2111;SDS011;1062;52.538;13.400;2022-07-23T10:04:31;2.80;;;2.07;;
2111;SDS011;1062;52.538;13.400;2022-07-23T10:06:58;2.97;;;2.67;;
2111;SDS011;1062;52.538;13.400;2022-07-23T10:09:28;2.90;;;2.10;;
2111;SDS011;1062;52.538;13.400;2022-07-23T10:12:05;4.33;;;2.50;;
2111;SDS011;1062;52.538;13.400;2022-07-23T10:14:42;5.53;;;4.73;;
2111;SDS011;1062;52.538;13.400;2022-07-23T10:17:07;8.17;;;2.27;;
2111;SDS011;1062;52.538;13.400;2022-07-23T10:19:33;2.30;;;2.10;;
2111;SDS011;1062;52.538;13.400;2022-07-23T10:22:04;2.30;;;2.00;;
2111;SDS011;1062;52.538;13.400;2022-07-23T10:27:41;3.00;;;1.90;;
2111;SDS011;1062;52.538;13.400;2022-07-23T10:30:12;3.60;;;2.13;;
2111;SDS011;1062;52.538;13.400;2022-07-23T10:33:22;1.87;;;1.77;;
2111;SDS011;1062;52.538;13.400;2022-07-23T10:36:01;2.37;;;1.90;;
2111;SDS011;1062;52.538;13.400;2022-07-23T10:38:37;2.43;;;2.07;;
2111;SDS011;1062;52.538;13.400;2022-07-23T10:41:34;1.80;;;1.70;;
2111;SDS011;1062;52.538;13.400;2022-07-23T10:44:05;4.20;;;1.80;;
2111;SDS011;1062;52.538;13.400;2022-07-23T10:46:35;4.07;;;2.33;;
2111;SDS011;1062;52.538;13.400;2022-07-23T10:54:52;1.67;;;1.57;;
2111;SDS011;1062;52.538;13.400;2022-07-23T10:57:22;4.83;;;1.83;;
2111;SDS011;1062;52.538;13.400;2022-07-23T11:02:40;2.57;;;1.93;;
2111;SDS011;1062;52.538;13.400;2022-07-23T11:05:11;2.47;;;2.17;;
2111;SDS011;1062;52.538;13.400;2022-07-23T11:10:32;2.13;;;1.73;;
2111;SDS011;1062;52.538;13.400;2022-07-23T11:29:40;2.37;;;2.27;;
2111;SDS011;1062;52.538;13.400;2022-07-23T11:32:03;3.10;;;2.17;;
2111;SDS011;1062;52.538;13.400;2022-07-23T11:37:08;5.27;;;2.27;;
2111;SDS011;1062;52.538;13.400;2022-07-23T11:39:35;2.10;;;1.80;;
2111;SDS011;1062;52.538;13.400;2022-07-23T11:42:03;2.97;;;2.10;;
2111;SDS011;1062;52.538;13.400;2022-07-23T11:44:31;2.60;;;2.40;;
2111;SDS011;1062;52.538;13.400;2022-07-23T11:47:08;2.70;;;2.50;;
2111;SDS011;1062;52.538;13.400;2022-07-23T11:49:37;2.47;;;2.23;;
2111;SDS011;1062;52.538;13.400;2022-07-23T11:52:07;2.33;;;2.13;;
2111;SDS011;1062;52.538;13.400;2022-07-23T11:54:47;2.27;;;2.07;;
2111;SDS011;1062;52.538;13.400;2022-07-23T11:57:14;3.60;;;2.57;;
2111;SDS011;1062;52.538;13.400;2022-07-23T11:59:40;2.20;;;2.00;;
2111;SDS011;1062;52.538;13.400;2022-07-23T12:02:07;2.63;;;2.43;;
2111;SDS011;1062;52.538;13.400;2022-07-23T12:04:40;3.13;;;2.50;;
2111;SDS011;1062;52.538;13.400;2022-07-23T12:09:58;4.83;;;2.53;;
2111;SDS011;1062;52.538;13.400;2022-07-23T12:12:52;2.80;;;2.00;;
2111;SDS011;1062;52.538;13.400;2022-07-23T12:15:21;2.17;;;2.00;;
2111;SDS011;1062;52.538;13.400;2022-07-23T12:17:54;2.67;;;2.47;;
2111;SDS011;1062;52.538;13.400;2022-07-23T12:20:23;10.03;;;3.37;;
2111;SDS011;1062;52.538;13.400;2022-07-23T12:22:52;2.73;;;2.03;;
2111;SDS011;1062;52.538;13.400;2022-07-23T12:25:23;2.40;;;2.20;;
2111;SDS011;1062;52.538;13.400;2022-07-23T12:30:58;6.90;;;2.67;;
2111;SDS011;1062;52.538;13.400;2022-07-23T12:33:28;3.47;;;2.30;;
2111;SDS011;1062;52.538;13.400;2022-07-23T12:35:56;5.93;;;2.77;;
2111;SDS011;1062;52.538;13.400;2022-07-23T12:38:24;2.27;;;2.17;;
2111;SDS011;1062;52.538;13.400;2022-07-23T12:40:57;2.77;;;2.30;;
2111;SDS011;1062;52.538;13.400;2022-07-23T12:43:28;4.73;;;2.20;;
2111;SDS011;1062;52.538;13.400;2022-07-23T12:48:34;5.00;;;2.70;;
2111;SDS011;1062;52.538;13.400;2022-07-23T12:53:40;2.50;;;2.30;;
2111;SDS011;1062;52.538;13.400;2022-07-23T12:56:12;2.60;;;2.10;;
2111;SDS011;1062;52.538;13.400;2022-07-23T12:58:43;2.93;;;2.30;;
2111;SDS011;1062;52.538;13.400;2022-07-23T13:01:09;2.50;;;2.30;;
2111;SDS011;1062;52.538;13.400;2022-07-23T13:04:00;3.10;;;2.80;;
2111;SDS011;1062;52.538;13.400;2022-07-23T13:06:31;8.20;;;2.40;;
2111;SDS011;1062;52.538;13.400;2022-07-23T13:08:59;2.70;;;2.50;;
2111;SDS011;1062;52.538;13.400;2022-07-23T13:11:26;3.87;;;2.60;;
2111;SDS011;1062;52.538;13.400;2022-07-23T13:13:51;4.23;;;2.40;;
2111;SDS011;1062;52.538;13.400;2022-07-23T13:16:17;3.00;;;2.57;;
2111;SDS011;1062;52.538;13.400;2022-07-23T13:18:43;2.10;;;2.00;;
2111;SDS011;1062;52.538;13.400;2022-07-23T13:21:09;3.27;;;2.13;;
2111;SDS011;1062;52.538;13.400;2022-07-23T13:23:35;3.33;;;2.27;;
2111;SDS011;1062;52.538;13.400;2022-07-23T13:26:01;2.23;;;1.90;;
2111;SDS011;1062;52.538;13.400;2022-07-23T13:28:27;2.60;;;2.40;;
2111;SDS011;1062;52.538;13.400;2022-07-23T13:30:53;3.13;;;2.80;;
2111;SDS011;1062;52.538;13.400;2022-07-23T13:33:19;2.50;;;2.30;;
2111;SDS011;1062;52.538;13.400;2022-07-23T13:35:46;3.10;;;1.93;;
2111;SDS011;1062;52.538;13.400;2022-07-23T13:38:12;3.57;;;2.00;;
2111;SDS011;1062;52.538;13.400;2022-07-23T13:40:40;5.27;;;4.80;;
2111;SDS011;1062;52.538;13.400;2022-07-23T13:43:11;2.53;;;2.10;;
2111;SDS011;1062;52.538;13.400;2022-07-23T13:45:38;3.10;;;2.77;;
2111;SDS011;1062;52.538;13.400;2022-07-23T13:48:05;2.33;;;2.13;;
2111;SDS011;1062;52.538;13.400;2022-07-23T13:50:31;3.10;;;2.13;;
2111;SDS011;1062;52.538;13.400;2022-07-23T13:53:00;1.80;;;1.70;;
2111;SDS011;1062;52.538;13.400;2022-07-23T13:55:27;2.07;;;1.83;;
2111;SDS011;1062;52.538;13.400;2022-07-23T13:57:52;3.93;;;2.93;;
2111;SDS011;1062;52.538;13.400;2022-07-23T14:00:18;2.43;;;2.20;;
2111;SDS011;1062;52.538;13.400;2022-07-23T14:02:43;3.83;;;2.57;;
2111;SDS011;1062;52.538;13.400;2022-07-23T14:05:09;2.10;;;1.60;;
2111;SDS011;1062;52.538;13.400;2022-07-23T14:07:36;2.00;;;1.90;;
2111;SDS011;1062;52.538;13.400;2022-07-23T14:10:02;2.50;;;1.70;;
2111;SDS011;1062;52.538;13.400;2022-07-23T14:12:29;2.77;;;1.90;;
2111;SDS011;1062;52.538;13.400;2022-07-23T14:14:55;1.93;;;1.73;;
2111;SDS011;1062;52.538;13.400;2022-07-23T14:17:21;1.90;;;1.80;;
2111;SDS011;1062;52.538;13.400;2022-07-23T14:19:47;3.10;;;2.90;;
2111;SDS011;1062;52.538;13.400;2022-07-23T14:22:12;1.93;;;1.83;;
2111;SDS011;1062;52.538;13.400;2022-07-23T14:24:38;3.83;;;1.90;;
2111;SDS011;1062;52.538;13.400;2022-07-23T14:27:04;1.77;;;1.67;;
2111;SDS011;1062;52.538;13.400;2022-07-23T14:29:30;2.00;;;1.80;;
2111;SDS011;1062;52.538;13.400;2022-07-23T14:31:56;2.27;;;1.83;;
2111;SDS011;1062;52.538;13.400;2022-07-23T14:34:22;2.40;;;2.20;;
2111;SDS011;1062;52.538;13.400;2022-07-23T14:36:48;3.13;;;1.90;;
2111;SDS011;1062;52.538;13.400;2022-07-23T14:39:14;3.30;;;2.00;;
2111;SDS011;1062;52.538;13.400;2022-07-23T14:41:39;1.87;;;1.63;;
2111;SDS011;1062;52.538;13.400;2022-07-23T14:44:05;1.83;;;1.73;;
2111;SDS011;1062;52.538;13.400;2022-07-23T14:46:31;2.07;;;1.40;;
2111;SDS011;1062;52.538;13.400;2022-07-23T14:48:57;3.00;;;2.10;;
2111;SDS011;1062;52.538;13.400;2022-07-23T14:51:22;1.50;;;1.40;;
2111;SDS011;1062;52.538;13.400;2022-07-23T14:53:48;2.03;;;1.50;;
2111;SDS011;1062;52.538;13.400;2022-07-23T14:56:13;3.63;;;1.90;;
2111;SDS011;1062;52.538;13.400;2022-07-23T14:58:40;2.20;;;2.00;;
2111;SDS011;1062;52.538;13.400;2022-07-23T15:01:06;2.07;;;1.90;;
2111;SDS011;1062;52.538;13.400;2022-07-23T15:03:32;1.97;;;1.50;;
2111;SDS011;1062;52.538;13.400;2022-07-23T15:05:58;1.73;;;1.63;;
2111;SDS011;1062;52.538;13.400;2022-07-23T15:08:23;1.47;;;1.37;;
2111;SDS011;1062;52.538;13.400;2022-07-23T15:10:49;1.70;;;1.60;;
2111;SDS011;1062;52.538;13.400;2022-07-23T15:13:15;1.60;;;1.50;;
2111;SDS011;1062;52.538;13.400;2022-07-23T15:15:41;1.63;;;1.47;;
2111;SDS011;1062;52.538;13.400;2022-07-23T15:18:07;4.70;;;2.40;;
2111;SDS011;1062;52.538;13.400;2022-07-23T15:20:32;1.93;;;1.43;;
2111;SDS011;1062;52.538;13.400;2022-07-23T15:22:58;1.70;;;1.60;;
2111;SDS011;1062;52.538;13.400;2022-07-23T15:25:24;1.63;;;1.20;;
2111;SDS011;1062;52.538;13.400;2022-07-23T15:27:49;2.07;;;1.83;;
2111;SDS011;1062;52.538;13.400;2022-07-23T15:30:15;1.63;;;1.27;;
2111;SDS011;1062;52.538;13.400;2022-07-23T15:32:41;1.80;;;1.70;;
2111;SDS011;1062;52.538;13.400;2022-07-23T15:35:06;1.90;;;1.37;;
2111;SDS011;1062;52.538;13.400;2022-07-23T15:37:33;3.43;;;2.10;;
2111;SDS011;1062;52.538;13.400;2022-07-23T15:39:59;4.10;;;1.43;;
2111;SDS011;1062;52.538;13.400;2022-07-23T15:42:25;1.80;;;1.70;;
2111;SDS011;1062;52.538;13.400;2022-07-23T15:44:50;1.60;;;1.50;;
2111;SDS011;1062;52.538;13.400;2022-07-23T15:47:16;1.30;;;1.17;;
2111;SDS011;1062;52.538;13.400;2022-07-23T15:49:44;1.60;;;1.50;;
2111;SDS011;1062;52.538;13.400;2022-07-23T15:52:10;1.70;;;1.50;;
2111;SDS011;1062;52.538;13.400;2022-07-23T15:54:37;2.07;;;1.10;;
2111;SDS011;1062;52.538;13.400;2022-07-23T15:57:03;1.40;;;1.27;;